createdAt,value
2019-05-22T00:00:31.936Z,89.95
2019-05-22T00:03:04.599Z,89.18
2019-05-22T00:05:35.974Z,88.98
2019-05-22T00:08:09.738Z,88.97
2019-05-22T00:10:44.386Z,88.86
2019-05-22T00:13:18.853Z,87.73
2019-05-22T00:15:51.746Z,87.91
2019-05-22T00:18:22.725Z,88.32
2019-05-22T00:20:54.688Z,88.16
2019-05-22T00:23:27.148Z,87.86
2019-05-22T00:25:58.350Z,87.68
2019-05-22T00:28:31.631Z,87.58
2019-05-22T00:31:04.397Z,87.48
2019-05-22T00:33:37.198Z,87.61
2019-05-22T00:36:10.598Z,87.45
2019-05-22T00:38:41.776Z,86.79
2019-05-22T00:41:12.885Z,87.24
2019-05-22T00:43:45.060Z,86.58
2019-05-22T00:46:17.027Z,86.44
2019-05-22T00:48:48.418Z,86.97
2019-05-22T00:51:36.833Z,87.30
2019-05-22T00:54:12.594Z,86.61
2019-05-22T00:56:54.192Z,87.33
2019-05-22T00:59:43.070Z,87.32
2019-05-22T01:02:16.183Z,87.18
2019-05-22T01:04:48.718Z,87.68
2019-05-22T01:07:21.360Z,87.84
2019-05-22T01:10:01.605Z,87.88
2019-05-22T01:12:37.156Z,87.79
2019-05-22T01:15:09.144Z,88.13
2019-05-22T01:17:42.234Z,87.79
2019-05-22T01:20:15.787Z,88.07
2019-05-22T01:22:49.807Z,87.87
2019-05-22T01:25:24.990Z,87.97
2019-05-22T01:27:58.653Z,87.92
2019-05-22T01:30:40.480Z,87.70
2019-05-22T01:33:23.558Z,87.40
2019-05-22T01:36:03.795Z,86.83
2019-05-22T01:38:38.975Z,87.32
2019-05-22T01:41:19.208Z,86.93
2019-05-22T01:43:51.819Z,86.73
2019-05-22T01:46:22.890Z,86.49
2019-05-22T01:48:56.924Z,86.80
2019-05-22T01:51:28.220Z,86.62
2019-05-22T01:54:00.742Z,86.54
2019-05-22T01:56:34.353Z,86.77
2019-05-22T01:59:05.770Z,87.23
2019-05-22T02:01:38.235Z,86.56
2019-05-22T02:04:09.833Z,86.51
2019-05-22T02:06:41.984Z,86.66
2019-05-22T02:09:31.244Z,86.96
2019-05-22T02:12:27.774Z,86.87
2019-05-22T02:14:59.250Z,87.34
2019-05-22T02:17:35.952Z,86.66
2019-05-22T02:20:08.951Z,86.85
2019-05-22T02:22:41.054Z,86.57
2019-05-22T02:25:13.316Z,86.95
2019-05-22T02:27:44.932Z,87.00
2019-05-22T02:30:18.017Z,86.91
2019-05-22T02:32:49.330Z,86.45
2019-05-22T02:35:21.844Z,86.74
2019-05-22T02:37:52.849Z,86.62
2019-05-22T02:40:34.146Z,86.51
2019-05-22T02:43:07.218Z,86.51
2019-05-22T02:45:38.196Z,86.89
2019-05-22T02:48:11.812Z,87.24
2019-05-22T02:50:42.581Z,87.46
2019-05-22T02:53:14.978Z,88.04
2019-05-22T02:55:48.095Z,87.96
2019-05-22T02:58:21.656Z,87.77
2019-05-22T03:00:58.629Z,87.14
2019-05-22T03:03:31.071Z,87.57
2019-05-22T03:06:06.009Z,87.28
2019-05-22T03:09:00.050Z,87.47
2019-05-22T03:11:37.716Z,87.54
2019-05-22T03:14:09.653Z,87.66
2019-05-22T03:16:58.297Z,87.65
2019-05-22T03:19:42.397Z,87.23
2019-05-22T03:22:26.871Z,87.13
2019-05-22T03:25:02.441Z,87.36
2019-05-22T03:27:50.476Z,87.56
2019-05-22T03:30:37.021Z,87.92
2019-05-22T03:33:08.608Z,88.16
2019-05-22T03:35:46.214Z,88.36
2019-05-22T03:38:19.338Z,88.34
2019-05-22T03:40:52.768Z,88.61
2019-05-22T03:43:28.178Z,88.82
2019-05-22T03:46:02.956Z,88.90
2019-05-22T03:48:36.729Z,89.25
2019-05-22T03:51:12.557Z,88.58
2019-05-22T03:53:44.094Z,89.03
2019-05-22T03:56:18.096Z,88.85
2019-05-22T03:58:48.682Z,88.78
2019-05-22T04:01:22.186Z,89.06
2019-05-22T04:03:53.383Z,88.69
2019-05-22T04:06:25.500Z,88.72
2019-05-22T04:08:58.066Z,88.76
2019-05-22T04:11:32.494Z,89.03
2019-05-22T04:14:04.121Z,89.22
2019-05-22T04:16:35.955Z,89.34
2019-05-22T04:19:07.021Z,89.26
2019-05-22T04:21:38.307Z,89.05
2019-05-22T04:24:10.055Z,89.09
2019-05-22T04:26:41.652Z,88.80
2019-05-22T04:29:14.679Z,89.16
2019-05-22T04:31:52.214Z,88.83
2019-05-22T04:34:23.684Z,88.70
2019-05-22T04:36:55.724Z,88.59
2019-05-22T04:39:27.908Z,88.37
2019-05-22T04:41:59.042Z,88.56
2019-05-22T04:44:29.755Z,88.61
2019-05-22T04:47:01.861Z,87.73
2019-05-22T04:49:32.777Z,88.39
2019-05-22T04:52:04.945Z,89.13
2019-05-22T04:54:35.960Z,89.10
2019-05-22T04:57:07.947Z,89.43
2019-05-22T04:59:39.407Z,89.51
2019-05-22T05:02:10.858Z,89.32
2019-05-22T05:04:42.814Z,89.26
2019-05-22T05:07:13.480Z,89.09
2019-05-22T05:09:46.308Z,88.90
2019-05-22T05:12:17.465Z,89.24
2019-05-22T05:14:48.418Z,88.86
2019-05-22T05:17:21.440Z,89.33
2019-05-22T05:19:51.523Z,89.29
2019-05-22T05:22:27.915Z,89.04
2019-05-22T05:24:58.901Z,89.28
2019-05-22T05:27:30.281Z,89.29
2019-05-22T05:30:01.427Z,88.89
2019-05-22T05:32:32.689Z,88.93
2019-05-22T05:35:06.109Z,89.20
2019-05-22T05:37:37.005Z,89.21
2019-05-22T05:40:10.859Z,89.30
2019-05-22T05:42:41.773Z,89.03
2019-05-22T05:45:13.800Z,89.53
2019-05-22T05:47:45.597Z,89.53
2019-05-22T05:50:18.557Z,89.04
2019-05-22T05:52:49.816Z,88.90
2019-05-22T05:55:22.308Z,88.65
2019-05-22T05:57:56.930Z,89.62
2019-05-22T06:00:32.451Z,89.35
2019-05-22T06:03:22.994Z,89.60
2019-05-22T06:05:54.013Z,89.69
2019-05-22T06:08:26.446Z,89.47
2019-05-22T06:11:21.924Z,89.83
2019-05-22T06:13:52.777Z,89.14
2019-05-22T06:16:26.972Z,89.10
2019-05-22T06:18:57.910Z,89.59
2019-05-22T06:21:28.922Z,89.46
2019-05-22T06:24:04.055Z,89.09
2019-05-22T06:26:49.104Z,89.77
2019-05-22T06:29:22.530Z,89.13
2019-05-22T06:32:07.358Z,88.90
2019-05-22T06:34:38.478Z,89.43
2019-05-22T06:37:15.404Z,89.07
2019-05-22T06:39:46.872Z,88.97
2019-05-22T06:42:17.822Z,89.54
2019-05-22T06:44:48.516Z,89.82
2019-05-22T06:47:21.119Z,89.56
2019-05-22T06:49:53.788Z,89.96
2019-05-22T06:52:25.343Z,89.85
2019-05-22T06:54:56.807Z,89.20
2019-05-22T06:57:30.897Z,89.66
2019-05-22T07:00:14.589Z,89.13
2019-05-22T07:02:37.908Z,88.35
2019-05-22T07:05:10.192Z,88.42
2019-05-22T07:07:42.886Z,88.34
2019-05-22T07:10:14.820Z,88.72
2019-05-22T07:12:50.271Z,88.53
2019-05-22T07:15:26.025Z,88.65
2019-05-22T07:17:57.302Z,87.75
2019-05-22T07:20:31.067Z,88.01
2019-05-22T07:23:04.255Z,87.88
2019-05-22T07:25:36.649Z,86.71
2019-05-22T07:28:07.467Z,86.82
2019-05-22T07:30:39.123Z,87.39
2019-05-22T07:33:10.377Z,87.11
2019-05-22T07:36:04.818Z,86.53
2019-05-22T07:38:15.979Z,86.63
2019-05-22T07:40:50.363Z,86.27
2019-05-22T07:43:22.325Z,86.67
2019-05-22T07:45:57.270Z,86.21
2019-05-22T07:48:29.377Z,85.24
2019-05-22T07:51:01.347Z,85.44
2019-05-22T07:53:32.332Z,85.18
2019-05-22T07:56:07.878Z,84.84
2019-05-22T07:58:39.012Z,85.59
2019-05-22T08:01:10.050Z,84.40
2019-05-22T08:03:42.840Z,84.63
2019-05-22T08:06:14.286Z,84.85
2019-05-22T08:08:46.359Z,84.32
2019-05-22T08:11:17.600Z,84.24
2019-05-22T08:13:49.379Z,84.26
2019-05-22T08:16:20.402Z,83.53
2019-05-22T08:18:52.997Z,83.93
2019-05-22T08:21:24.437Z,84.69
2019-05-22T08:23:56.067Z,84.83
2019-05-22T08:26:29.977Z,84.74
2019-05-22T08:29:02.038Z,85.39
2019-05-22T08:31:34.081Z,85.72
2019-05-22T08:34:07.420Z,85.47
2019-05-22T08:36:40.073Z,85.99
2019-05-22T08:39:11.966Z,86.13
2019-05-22T08:41:44.410Z,86.74
2019-05-22T08:44:19.974Z,86.85
2019-05-22T08:46:50.919Z,86.52
2019-05-22T08:49:22.225Z,86.15
2019-05-22T08:51:54.952Z,86.06
2019-05-22T08:54:26.800Z,86.15
2019-05-22T08:57:01.918Z,85.45
2019-05-22T08:59:32.991Z,85.25
2019-05-22T09:02:05.190Z,85.22
2019-05-22T09:04:35.691Z,85.05
2019-05-22T09:07:06.696Z,84.78
2019-05-22T09:09:46.672Z,84.68
2019-05-22T09:12:17.494Z,84.70
2019-05-22T09:14:50.218Z,85.04
2019-05-22T09:17:21.640Z,85.23
2019-05-22T09:19:55.281Z,84.89
2019-05-22T09:22:39.371Z,84.50
2019-05-22T09:25:00.879Z,84.68
2019-05-22T09:27:31.870Z,84.45
2019-05-22T09:30:02.706Z,83.77
2019-05-22T09:32:35.151Z,84.28
2019-05-22T09:35:07.270Z,83.76
2019-05-22T09:37:38.695Z,83.78
2019-05-22T09:40:09.243Z,83.08
2019-05-22T09:42:40.467Z,83.84
2019-05-22T09:45:12.229Z,83.44
2019-05-22T09:47:42.733Z,83.45
2019-05-22T09:50:15.231Z,83.63
2019-05-22T09:52:56.783Z,82.88
2019-05-22T09:55:21.015Z,83.72
2019-05-22T09:57:53.667Z,83.63
2019-05-22T10:00:24.532Z,84.10
2019-05-22T10:02:55.453Z,84.35
2019-05-22T10:05:26.511Z,84.20
2019-05-22T10:08:01.563Z,83.81
2019-05-22T10:10:33.390Z,83.86
2019-05-22T10:13:05.557Z,83.63
2019-05-22T10:15:36.816Z,83.96
2019-05-22T10:18:08.335Z,84.12
2019-05-22T10:20:39.710Z,83.70
2019-05-22T10:23:16.015Z,83.48
2019-05-22T10:25:48.814Z,82.77
2019-05-22T10:28:20.015Z,82.93
2019-05-22T10:30:51.740Z,82.76
2019-05-22T10:33:23.527Z,82.73
2019-05-22T10:35:59.165Z,82.67
2019-05-22T10:38:30.109Z,82.52
2019-05-22T10:41:00.931Z,82.43
2019-05-22T10:43:31.873Z,82.80
2019-05-22T10:46:03.192Z,83.16
2019-05-22T10:48:40.194Z,83.59
2019-05-22T10:51:11.658Z,84.10
2019-05-22T10:53:42.613Z,84.64
2019-05-22T10:56:13.452Z,84.65
2019-05-22T10:58:44.065Z,83.89
2019-05-22T11:01:15.503Z,84.20
2019-05-22T11:03:46.935Z,83.79
2019-05-22T11:06:19.133Z,83.11
2019-05-22T11:08:49.962Z,82.62
2019-05-22T11:11:21.266Z,82.27
2019-05-22T11:14:01.501Z,82.69
2019-05-22T11:16:26.370Z,83.08
2019-05-22T11:18:58.623Z,82.64
2019-05-22T11:21:29.687Z,82.36
2019-05-22T11:24:00.777Z,83.10
2019-05-22T11:26:33.314Z,82.80
2019-05-22T11:29:04.904Z,83.03
2019-05-22T11:31:36.305Z,82.92
2019-05-22T11:34:07.852Z,83.41
2019-05-22T11:36:39.605Z,83.00
2019-05-22T11:39:13.563Z,82.93
2019-05-22T11:41:44.419Z,83.32
2019-05-22T11:44:15.378Z,82.91
2019-05-22T11:46:47.761Z,82.89
2019-05-22T11:49:18.601Z,82.65
2019-05-22T11:51:51.695Z,83.20
2019-05-22T11:54:22.221Z,82.81
2019-05-22T11:56:52.691Z,82.93
2019-05-22T11:59:24.939Z,82.70
2019-05-22T12:01:55.957Z,82.63
2019-05-22T12:04:44.388Z,83.15
2019-05-22T12:07:02.753Z,82.41
2019-05-22T12:09:36.545Z,83.37
2019-05-22T12:12:08.555Z,83.41
2019-05-22T12:14:39.491Z,83.90
2019-05-22T12:17:11.850Z,83.71
2019-05-22T12:19:43.204Z,83.78
2019-05-22T12:22:14.187Z,83.04
2019-05-22T12:24:45.502Z,82.60
2019-05-22T12:27:16.750Z,83.26
2019-05-22T12:29:48.386Z,83.26
2019-05-22T12:32:21.779Z,83.32
2019-05-22T12:34:56.117Z,83.18
2019-05-22T12:37:29.417Z,82.75
2019-05-22T12:40:02.205Z,82.88
2019-05-22T12:42:36.801Z,82.85
2019-05-22T12:45:10.081Z,82.69
2019-05-22T12:47:43.563Z,82.31
2019-05-22T12:50:16.917Z,82.06
2019-05-22T12:52:50.159Z,82.41
2019-05-22T12:55:21.255Z,82.67
2019-05-22T12:57:52.543Z,82.23
2019-05-22T13:00:29.917Z,81.62
2019-05-22T13:03:03.025Z,82.23
2019-05-22T13:05:37.402Z,83.12
2019-05-22T13:08:09.354Z,82.25
2019-05-22T13:10:40.857Z,82.89
2019-05-22T13:13:13.089Z,83.49
2019-05-22T13:15:45.720Z,83.95
2019-05-22T13:18:21.392Z,83.77
2019-05-22T13:20:53.958Z,84.80
2019-05-22T13:23:29.429Z,84.46
2019-05-22T13:26:03.224Z,85.45
2019-05-22T13:28:37.958Z,85.16
2019-05-22T13:31:13.076Z,86.39
2019-05-22T13:33:46.958Z,86.90
2019-05-22T13:36:20.092Z,86.53
2019-05-22T13:38:51.884Z,86.65
2019-05-22T13:41:23.303Z,86.69
2019-05-22T13:43:55.037Z,87.43
2019-05-22T13:46:26.463Z,88.02
2019-05-22T13:48:57.426Z,88.33
2019-05-22T13:51:28.463Z,87.45
2019-05-22T13:53:59.982Z,88.28
2019-05-22T13:56:31.475Z,88.08
2019-05-22T13:59:02.523Z,87.88
2019-05-22T14:01:33.354Z,87.81
2019-05-22T14:04:04.613Z,88.29
2019-05-22T14:06:35.933Z,88.24
2019-05-22T14:09:10.126Z,87.95
2019-05-22T14:11:41.556Z,87.18
2019-05-22T14:14:13.270Z,87.05
2019-05-22T14:16:49.083Z,86.13
2019-05-22T14:19:17.628Z,86.79
2019-05-22T14:21:51.801Z,86.99
2019-05-22T14:24:21.369Z,86.30
2019-05-22T14:26:52.388Z,86.34
2019-05-22T14:29:23.960Z,85.60
2019-05-22T14:31:55.148Z,85.31
2019-05-22T14:34:26.920Z,85.25
2019-05-22T14:36:57.874Z,84.36
2019-05-22T14:39:30.053Z,84.18
2019-05-22T14:42:01.191Z,84.67
2019-05-22T14:44:34.131Z,84.84
2019-05-22T14:47:14.089Z,84.53
2019-05-22T14:49:37.571Z,84.34
2019-05-22T14:52:08.623Z,84.24
2019-05-22T14:54:39.495Z,83.43
2019-05-22T14:57:11.367Z,83.34
2019-05-22T14:59:41.979Z,83.18
2019-05-22T15:02:12.895Z,83.53
2019-05-22T15:04:44.060Z,83.52
2019-05-22T15:07:14.971Z,83.26
2019-05-22T15:09:45.843Z,83.44
2019-05-22T15:12:16.896Z,82.64
2019-05-22T15:14:47.783Z,82.30
2019-05-22T15:17:31.892Z,82.94
2019-05-22T15:19:51.847Z,82.00
2019-05-22T15:22:22.763Z,82.66
2019-05-22T15:24:53.930Z,82.55
2019-05-22T15:27:25.552Z,81.76
2019-05-22T15:29:56.727Z,81.48
2019-05-22T15:32:27.639Z,81.35
2019-05-22T15:34:58.805Z,81.43
2019-05-22T15:37:30.265Z,81.60
2019-05-22T15:40:02.836Z,81.76
2019-05-22T15:42:40.243Z,82.51
2019-05-22T15:45:29.646Z,82.50
2019-05-22T15:48:04.875Z,82.57
2019-05-22T15:50:37.718Z,82.10
2019-05-22T15:53:15.045Z,81.80
2019-05-22T15:55:45.612Z,82.00
2019-05-22T15:58:18.525Z,82.26
2019-05-22T16:00:50.910Z,81.82
2019-05-22T16:03:25.421Z,81.94
2019-05-22T16:05:56.815Z,81.99
2019-05-22T16:08:29.344Z,81.38
2019-05-22T16:11:02.203Z,81.82
2019-05-22T16:13:35.088Z,81.60
2019-05-22T16:16:06.758Z,81.75
2019-05-22T16:18:39.173Z,81.76
2019-05-22T16:21:11.653Z,81.60
2019-05-22T16:23:43.773Z,81.18
2019-05-22T16:26:15.971Z,80.72
2019-05-22T16:28:48.313Z,81.15
2019-05-22T16:31:19.963Z,80.78
2019-05-22T16:33:53.528Z,80.82
2019-05-22T16:36:25.373Z,80.63
2019-05-22T16:38:58.152Z,80.32
2019-05-22T16:41:29.877Z,80.18
2019-05-22T16:44:01.220Z,79.75
2019-05-22T16:46:32.877Z,80.31
2019-05-22T16:49:04.381Z,79.63
2019-05-22T16:51:36.205Z,79.91
2019-05-22T16:54:08.709Z,79.59
2019-05-22T16:56:41.035Z,79.52
2019-05-22T16:59:13.640Z,79.82
2019-05-22T17:01:58.645Z,79.99
2019-05-22T17:04:21.414Z,79.46
2019-05-22T17:06:52.726Z,79.43
2019-05-22T17:09:24.055Z,78.79
2019-05-22T17:11:55.796Z,79.03
2019-05-22T17:14:28.279Z,79.55
2019-05-22T17:16:58.756Z,78.89
2019-05-22T17:19:29.876Z,79.17
2019-05-22T17:22:01.197Z,78.98
2019-05-22T17:24:34.162Z,79.38
2019-05-22T17:27:06.448Z,79.18
2019-05-22T17:29:37.311Z,79.27
2019-05-22T17:32:08.336Z,79.90
2019-05-22T17:34:40.103Z,79.85
2019-05-22T17:37:14.553Z,80.01
2019-05-22T17:39:47.121Z,79.93
2019-05-22T17:42:20.343Z,79.64
2019-05-22T17:44:53.192Z,80.37
2019-05-22T17:47:26.420Z,79.84
2019-05-22T17:49:58.317Z,80.35
2019-05-22T17:52:29.647Z,79.99
2019-05-22T17:55:00.620Z,79.86
2019-05-22T17:57:32.173Z,80.01
2019-05-22T18:00:05.165Z,79.34
2019-05-22T18:02:36.937Z,79.91
2019-05-22T18:05:10.107Z,80.11
2019-05-22T18:07:42.050Z,79.86
2019-05-22T18:10:13.811Z,80.19
2019-05-22T18:12:44.640Z,79.94
2019-05-22T18:15:16.225Z,79.12
2019-05-22T18:17:47.137Z,79.76
2019-05-22T18:20:19.120Z,79.81
2019-05-22T18:22:50.143Z,79.92
2019-05-22T18:25:21.476Z,79.63
2019-05-22T18:27:52.669Z,79.86
2019-05-22T18:30:24.835Z,79.33
2019-05-22T18:32:55.738Z,79.22
2019-05-22T18:35:27.087Z,79.08
2019-05-22T18:37:59.348Z,79.03
2019-05-22T18:40:30.605Z,78.60
2019-05-22T18:43:01.530Z,78.26
2019-05-22T18:45:34.432Z,78.31
2019-05-22T18:48:07.115Z,78.38
2019-05-22T18:50:38.431Z,78.48
2019-05-22T18:53:09.680Z,78.34
2019-05-22T18:55:40.457Z,78.21
2019-05-22T18:58:11.588Z,77.86
2019-05-22T19:00:42.691Z,78.22
2019-05-22T19:03:14.091Z,77.57
2019-05-22T19:05:45.105Z,77.62
2019-05-22T19:08:15.970Z,77.16
2019-05-22T19:10:47.241Z,76.92
2019-05-22T19:13:18.141Z,77.31
2019-05-22T19:15:50.612Z,77.16
2019-05-22T19:18:21.946Z,76.99
2019-05-22T19:20:53.316Z,76.94
2019-05-22T19:23:24.799Z,76.59
2019-05-22T19:25:57.935Z,76.31
2019-05-22T19:28:42.983Z,75.82
2019-05-22T19:31:01.846Z,75.45
2019-05-22T19:33:32.370Z,75.81
2019-05-22T19:36:04.183Z,75.57
2019-05-22T19:38:35.299Z,75.54
2019-05-22T19:41:06.671Z,75.85
2019-05-22T19:43:37.675Z,75.52
2019-05-22T19:46:08.903Z,75.02
2019-05-22T19:48:40.216Z,74.91
2019-05-22T19:51:12.883Z,75.11
2019-05-22T19:53:43.657Z,74.99
2019-05-22T19:56:15.534Z,74.86
2019-05-22T19:58:46.866Z,74.55
2019-05-22T20:01:18.590Z,74.83
2019-05-22T20:03:51.798Z,74.92
2019-05-22T20:06:23.437Z,74.87
2019-05-22T20:08:54.972Z,74.94
2019-05-22T20:11:26.938Z,74.37
2019-05-22T20:13:58.648Z,74.33
2019-05-22T20:16:29.648Z,74.51
2019-05-22T20:19:00.892Z,73.90
2019-05-22T20:21:32.842Z,73.94
2019-05-22T20:24:04.383Z,74.10
2019-05-22T20:26:35.376Z,74.28
2019-05-22T20:29:07.643Z,73.68
2019-05-22T20:31:40.123Z,74.18
2019-05-22T20:34:11.184Z,73.89
2019-05-22T20:36:42.634Z,74.24
2019-05-22T20:39:15.171Z,74.28
2019-05-22T20:41:46.662Z,74.39
2019-05-22T20:44:20.004Z,74.38
2019-05-22T20:46:51.486Z,74.58
2019-05-22T20:49:23.867Z,74.32
2019-05-22T20:51:55.195Z,74.39
2019-05-22T20:54:29.034Z,74.39
2019-05-22T20:57:01.035Z,74.36
2019-05-22T20:59:32.442Z,74.58
2019-05-22T21:02:04.689Z,74.11
2019-05-22T21:04:37.136Z,74.58
2019-05-22T21:07:09.829Z,74.66
2019-05-22T21:09:41.024Z,74.66
2019-05-22T21:12:13.175Z,74.99
2019-05-22T21:14:43.774Z,75.13
2019-05-22T21:17:16.449Z,74.27
2019-05-22T21:19:49.234Z,74.60
2019-05-22T21:22:21.860Z,75.08
2019-05-22T21:24:55.447Z,74.81
2019-05-22T21:27:26.898Z,75.34
2019-05-22T21:29:58.563Z,75.38
2019-05-22T21:32:30.548Z,75.41
2019-05-22T21:35:01.487Z,75.91
2019-05-22T21:37:32.477Z,75.92
2019-05-22T21:40:05.303Z,75.39
2019-05-22T21:42:38.594Z,75.96
2019-05-22T21:45:11.455Z,75.80
2019-05-22T21:47:42.397Z,75.90
2019-05-22T21:50:13.987Z,75.86
2019-05-22T21:52:45.201Z,75.65
2019-05-22T21:55:27.241Z,75.75
2019-05-22T21:57:54.723Z,76.34
2019-05-22T22:00:42.589Z,75.83
2019-05-22T22:03:19.166Z,76.20
2019-05-22T22:05:50.676Z,76.32
2019-05-22T22:08:21.638Z,76.28
2019-05-22T22:10:54.462Z,76.57
2019-05-22T22:13:26.104Z,76.59
2019-05-22T22:16:00.025Z,76.67
2019-05-22T22:18:33.233Z,76.68
2019-05-22T22:21:05.030Z,76.09
2019-05-22T22:23:36.466Z,76.53
2019-05-22T22:26:24.055Z,76.51
2019-05-22T22:28:42.228Z,76.69
2019-05-22T22:31:15.347Z,77.00
2019-05-22T22:33:52.433Z,77.12
2019-05-22T22:36:24.072Z,77.49
2019-05-22T22:38:56.027Z,77.52
2019-05-22T22:41:27.170Z,77.30
2019-05-22T22:43:59.016Z,77.47
2019-05-22T22:46:39.580Z,77.56
2019-05-22T22:49:13.791Z,77.26
2019-05-22T22:51:46.690Z,77.12
2019-05-22T22:54:20.532Z,77.38
2019-05-22T22:56:51.638Z,77.31
2019-05-22T22:59:22.810Z,77.10
2019-05-22T23:01:56.701Z,77.64
2019-05-22T23:04:30.014Z,77.12
2019-05-22T23:07:03.336Z,77.14
2019-05-22T23:09:37.526Z,76.98
2019-05-22T23:12:09.862Z,76.97
2019-05-22T23:14:44.683Z,77.17
2019-05-22T23:17:17.322Z,77.29
2019-05-22T23:19:47.601Z,77.54
2019-05-22T23:22:18.101Z,76.95
2019-05-22T23:24:49.985Z,77.46
2019-05-22T23:27:21.326Z,77.45
2019-05-22T23:29:52.507Z,77.44
2019-05-22T23:32:24.579Z,77.68
2019-05-22T23:34:57.214Z,77.20
2019-05-22T23:37:28.994Z,77.51
2019-05-22T23:40:00.688Z,77.43
2019-05-22T23:42:35.264Z,77.49
2019-05-22T23:45:10.576Z,77.48
2019-05-22T23:47:59.289Z,77.06
2019-05-22T23:50:33.902Z,77.58
2019-05-22T23:53:05.842Z,77.77
2019-05-22T23:55:36.950Z,77.06
2019-05-22T23:58:10.337Z,77.07
